Sea Dragon — ZCYV6 — position and weather

sailwx.info

Track history (hours):
 
Tides and Currents Weather Stations Pressure Air Temp Water Temp Dewpoint Dewpoint Depression Visibility Wind Speed Wind Dir Waves Ship Positions

Sea Dragon

Last reported at 2017-Nov-10 06:16 UTC. Time now 2017-Nov-23 20:58 UTC.
Position N 28°40' W 015°39'.
Warning: this ship's position is 13 days out of date.

Length 22 m; draft 3.5 m.

Type: Sailing vessel. MMSI: 319011400.

Date/timePositionNaut miles runAvg speedWind from/ knotsBaromVisibWave heightAir tempDewpointWater temp
2017-Nov-10 06:16N 28°40' W 015°39'2 7.6
2017-Nov-10 05:57N 28°40' W 015°37'3 7.8
2017-Nov-10 05:30N 28°40' W 015°33'4 7.6
2017-Nov-10 05:00N 28°40' W 015°28'4 7.6
2017-Nov-10 04:30N 28°41' W 015°24'4 7.7
2017-Nov-10 03:58N 28°41' W 015°19'6 7.6
2017-Nov-10 03:13N 28°41' W 015°13'2 7.5
2017-Nov-10 02:57N 28°41' W 015°11'82 6.3
2017-Nov-09 13:56N 28°55' W 013°39'3 6.6
2017-Nov-09 13:29N 28°55' W 013°35'4 7.2
2017-Nov-09 12:59N 28°57' W 013°32'1 1.3
2017-Nov-09 12:30N 28°58' W 013°32'0 0.0
2017-Nov-09 12:00N 28°58' W 013°32'0 0.0
2017-Nov-09 11:30N 28°58' W 013°32'  
Track history (hours):
 
Tides and Currents Weather Stations Pressure Air Temp Water Temp Dewpoint Dewpoint Depression Visibility Wind Speed Wind Dir Waves Ship Positions

Sea Dragon

Last reported at 2017-Nov-10 06:16 UTC. Time now 2017-Nov-23 20:58 UTC.
Position N 28°40' W 015°39'.
Warning: this ship's position is 13 days out of date.

Length 22 m; draft 3.5 m.

Type: Sailing vessel. MMSI: 319011400.

Date/timePositionNaut miles runAvg speedWind from/ knotsBaromVisibWave heightAir tempDewpointWater temp
2017-Nov-10 06:16N 28°40' W 015°39'2 7.6
2017-Nov-10 05:57N 28°40' W 015°37'3 7.8
2017-Nov-10 05:30N 28°40' W 015°33'4 7.6
2017-Nov-10 05:00N 28°40' W 015°28'4 7.6
2017-Nov-10 04:30N 28°41' W 015°24'4 7.7
2017-Nov-10 03:58N 28°41' W 015°19'6 7.6
2017-Nov-10 03:13N 28°41' W 015°13'2 7.5
2017-Nov-10 02:57N 28°41' W 015°11'82 6.3
2017-Nov-09 13:56N 28°55' W 013°39'3 6.6
2017-Nov-09 13:29N 28°55' W 013°35'4 7.2
2017-Nov-09 12:59N 28°57' W 013°32'1 1.3
2017-Nov-09 12:30N 28°58' W 013°32'0 0.0
2017-Nov-09 12:00N 28°58' W 013°32'0 0.0
2017-Nov-09 11:30N 28°58' W 013°32'  

Dump ship's entire track history